sensor_id;sensor_type;location;lat;lon;timestamp;P1;durP1;ratioP1;P2;durP2;ratioP2
60859;SDS011;46694;54.382;9.708;2023-04-03T00:01:24;7.13;;;2.28;;
60859;SDS011;46694;54.382;9.708;2023-04-03T00:04:07;8.80;;;2.38;;
60859;SDS011;46694;54.382;9.708;2023-04-03T00:06:46;6.65;;;2.55;;
60859;SDS011;46694;54.382;9.708;2023-04-03T00:09:26;6.30;;;2.35;;
60859;SDS011;46694;54.382;9.708;2023-04-03T00:12:06;5.38;;;2.80;;
60859;SDS011;46694;54.382;9.708;2023-04-03T00:14:45;6.05;;;2.15;;
60859;SDS011;46694;54.382;9.708;2023-04-03T00:17:25;5.35;;;2.20;;
60859;SDS011;46694;54.382;9.708;2023-04-03T00:20:04;4.38;;;2.50;;
60859;SDS011;46694;54.382;9.708;2023-04-03T00:22:44;6.05;;;2.20;;
60859;SDS011;46694;54.382;9.708;2023-04-03T00:25:24;4.00;;;2.03;;
60859;SDS011;46694;54.382;9.708;2023-04-03T00:28:04;5.30;;;2.33;;
60859;SDS011;46694;54.382;9.708;2023-04-03T00:30:43;6.20;;;2.83;;
60859;SDS011;46694;54.382;9.708;2023-04-03T00:33:23;6.75;;;2.25;;
60859;SDS011;46694;54.382;9.708;2023-04-03T00:36:07;12.13;;;2.53;;
60859;SDS011;46694;54.382;9.708;2023-04-03T00:38:48;10.88;;;2.33;;
60859;SDS011;46694;54.382;9.708;2023-04-03T00:41:27;8.53;;;2.20;;
60859;SDS011;46694;54.382;9.708;2023-04-03T00:47:23;11.82;;;2.40;;
60859;SDS011;46694;54.382;9.708;2023-04-03T00:50:03;11.18;;;2.80;;
60859;SDS011;46694;54.382;9.708;2023-04-03T00:52:43;11.15;;;2.30;;
60859;SDS011;46694;54.382;9.708;2023-04-03T00:55:25;11.13;;;2.40;;
60859;SDS011;46694;54.382;9.708;2023-04-03T00:58:05;10.63;;;2.70;;
60859;SDS011;46694;54.382;9.708;2023-04-03T01:00:48;9.77;;;2.40;;
60859;SDS011;46694;54.382;9.708;2023-04-03T01:03:34;7.95;;;2.38;;
60859;SDS011;46694;54.382;9.708;2023-04-03T01:06:15;6.65;;;2.20;;
60859;SDS011;46694;54.382;9.708;2023-04-03T01:08:59;11.40;;;2.47;;
60859;SDS011;46694;54.382;9.708;2023-04-03T01:11:39;8.98;;;2.00;;
60859;SDS011;46694;54.382;9.708;2023-04-03T01:14:19;6.65;;;2.10;;
60859;SDS011;46694;54.382;9.708;2023-04-03T01:16:58;13.48;;;2.50;;
60859;SDS011;46694;54.382;9.708;2023-04-03T01:19:38;10.95;;;2.25;;
60859;SDS011;46694;54.382;9.708;2023-04-03T01:22:25;9.40;;;2.15;;
60859;SDS011;46694;54.382;9.708;2023-04-03T01:25:14;10.60;;;2.30;;
60859;SDS011;46694;54.382;9.708;2023-04-03T01:27:54;8.07;;;2.20;;
60859;SDS011;46694;54.382;9.708;2023-04-03T01:30:45;11.40;;;2.07;;
60859;SDS011;46694;54.382;9.708;2023-04-03T01:34:00;9.70;;;2.50;;
60859;SDS011;46694;54.382;9.708;2023-04-03T01:36:39;6.65;;;2.10;;
60859;SDS011;46694;54.382;9.708;2023-04-03T01:39:19;7.67;;;2.20;;
60859;SDS011;46694;54.382;9.708;2023-04-03T01:41:59;7.03;;;1.80;;
60859;SDS011;46694;54.382;9.708;2023-04-03T01:44:39;7.43;;;2.17;;
60859;SDS011;46694;54.382;9.708;2023-04-03T01:47:18;9.70;;;2.03;;
60859;SDS011;46694;54.382;9.708;2023-04-03T01:49:58;7.90;;;1.80;;
60859;SDS011;46694;54.382;9.708;2023-04-03T01:52:38;8.38;;;1.98;;
60859;SDS011;46694;54.382;9.708;2023-04-03T01:55:17;7.70;;;1.90;;
60859;SDS011;46694;54.382;9.708;2023-04-03T01:57:57;6.20;;;1.85;;
60859;SDS011;46694;54.382;9.708;2023-04-03T02:00:37;6.88;;;2.10;;
60859;SDS011;46694;54.382;9.708;2023-04-03T02:03:16;8.80;;;2.20;;
60859;SDS011;46694;54.382;9.708;2023-04-03T02:05:56;11.23;;;2.70;;
60859;SDS011;46694;54.382;9.708;2023-04-03T02:08:35;7.82;;;2.20;;
60859;SDS011;46694;54.382;9.708;2023-04-03T02:11:15;8.10;;;2.60;;
60859;SDS011;46694;54.382;9.708;2023-04-03T02:13:54;11.75;;;2.80;;
60859;SDS011;46694;54.382;9.708;2023-04-03T02:16:34;8.10;;;2.20;;
60859;SDS011;46694;54.382;9.708;2023-04-03T02:19:13;9.20;;;2.88;;
60859;SDS011;46694;54.382;9.708;2023-04-03T02:21:53;8.25;;;2.50;;
60859;SDS011;46694;54.382;9.708;2023-04-03T02:24:33;11.35;;;2.03;;
60859;SDS011;46694;54.382;9.708;2023-04-03T02:27:12;9.93;;;2.70;;
60859;SDS011;46694;54.382;9.708;2023-04-03T02:29:52;9.05;;;3.40;;
60859;SDS011;46694;54.382;9.708;2023-04-03T02:32:31;9.45;;;3.00;;
60859;SDS011;46694;54.382;9.708;2023-04-03T02:35:11;11.27;;;2.83;;
60859;SDS011;46694;54.382;9.708;2023-04-03T02:37:51;12.38;;;3.60;;
60859;SDS011;46694;54.382;9.708;2023-04-03T02:40:30;8.00;;;2.92;;
60859;SDS011;46694;54.382;9.708;2023-04-03T02:43:09;10.55;;;2.95;;
60859;SDS011;46694;54.382;9.708;2023-04-03T02:45:50;10.93;;;3.08;;
60859;SDS011;46694;54.382;9.708;2023-04-03T02:48:29;8.77;;;3.20;;
60859;SDS011;46694;54.382;9.708;2023-04-03T02:51:09;9.55;;;3.70;;
60859;SDS011;46694;54.382;9.708;2023-04-03T02:53:49;10.32;;;3.40;;
60859;SDS011;46694;54.382;9.708;2023-04-03T02:56:28;9.02;;;3.40;;
60859;SDS011;46694;54.382;9.708;2023-04-03T02:59:08;7.43;;;2.90;;
60859;SDS011;46694;54.382;9.708;2023-04-03T03:01:48;10.10;;;3.22;;
60859;SDS011;46694;54.382;9.708;2023-04-03T03:04:27;11.77;;;3.53;;
60859;SDS011;46694;54.382;9.708;2023-04-03T03:07:07;10.13;;;3.42;;
60859;SDS011;46694;54.382;9.708;2023-04-03T03:09:47;7.38;;;3.20;;
60859;SDS011;46694;54.382;9.708;2023-04-03T03:12:26;10.50;;;3.47;;
60859;SDS011;46694;54.382;9.708;2023-04-03T03:15:06;10.35;;;3.80;;
60859;SDS011;46694;54.382;9.708;2023-04-03T03:17:46;10.93;;;3.88;;
60859;SDS011;46694;54.382;9.708;2023-04-03T03:20:26;8.98;;;3.97;;
60859;SDS011;46694;54.382;9.708;2023-04-03T03:23:09;13.18;;;4.30;;
60859;SDS011;46694;54.382;9.708;2023-04-03T03:25:49;10.48;;;3.95;;
60859;SDS011;46694;54.382;9.708;2023-04-03T03:28:33;12.50;;;3.83;;
60859;SDS011;46694;54.382;9.708;2023-04-03T03:31:14;11.63;;;4.63;;
60859;SDS011;46694;54.382;9.708;2023-04-03T03:33:54;11.70;;;3.63;;
60859;SDS011;46694;54.382;9.708;2023-04-03T03:36:33;14.35;;;4.05;;
60859;SDS011;46694;54.382;9.708;2023-04-03T03:39:13;10.27;;;4.30;;
60859;SDS011;46694;54.382;9.708;2023-04-03T03:41:53;13.82;;;5.03;;
60859;SDS011;46694;54.382;9.708;2023-04-03T03:44:32;13.60;;;5.80;;
60859;SDS011;46694;54.382;9.708;2023-04-03T03:47:12;16.23;;;5.68;;
60859;SDS011;46694;54.382;9.708;2023-04-03T03:49:52;13.02;;;5.10;;
60859;SDS011;46694;54.382;9.708;2023-04-03T03:52:31;13.38;;;5.80;;
60859;SDS011;46694;54.382;9.708;2023-04-03T03:55:11;10.55;;;5.72;;
60859;SDS011;46694;54.382;9.708;2023-04-03T03:57:50;9.68;;;5.00;;
60859;SDS011;46694;54.382;9.708;2023-04-03T04:00:30;10.05;;;5.47;;
60859;SDS011;46694;54.382;9.708;2023-04-03T04:03:10;10.20;;;5.00;;
60859;SDS011;46694;54.382;9.708;2023-04-03T04:05:49;11.10;;;5.10;;
60859;SDS011;46694;54.382;9.708;2023-04-03T04:08:29;10.75;;;4.60;;
60859;SDS011;46694;54.382;9.708;2023-04-03T04:11:09;8.85;;;4.50;;
60859;SDS011;46694;54.382;9.708;2023-04-03T04:13:48;9.30;;;4.78;;
60859;SDS011;46694;54.382;9.708;2023-04-03T04:16:28;11.05;;;4.80;;
60859;SDS011;46694;54.382;9.708;2023-04-03T04:19:08;11.48;;;4.80;;
60859;SDS011;46694;54.382;9.708;2023-04-03T04:21:48;10.15;;;4.30;;
60859;SDS011;46694;54.382;9.708;2023-04-03T04:24:28;10.30;;;4.50;;
60859;SDS011;46694;54.382;9.708;2023-04-03T04:27:07;10.60;;;4.80;;
60859;SDS011;46694;54.382;9.708;2023-04-03T04:29:47;12.25;;;5.00;;
60859;SDS011;46694;54.382;9.708;2023-04-03T04:32:27;11.60;;;4.50;;
60859;SDS011;46694;54.382;9.708;2023-04-03T04:35:06;11.18;;;4.68;;
60859;SDS011;46694;54.382;9.708;2023-04-03T04:37:46;9.20;;;3.83;;
60859;SDS011;46694;54.382;9.708;2023-04-03T04:40:26;7.68;;;3.90;;
60859;SDS011;46694;54.382;9.708;2023-04-03T04:43:06;8.40;;;3.80;;
60859;SDS011;46694;54.382;9.708;2023-04-03T04:45:45;10.02;;;4.45;;
60859;SDS011;46694;54.382;9.708;2023-04-03T04:48:24;7.40;;;3.97;;
60859;SDS011;46694;54.382;9.708;2023-04-03T04:51:04;7.63;;;3.70;;
60859;SDS011;46694;54.382;9.708;2023-04-03T04:53:44;8.82;;;4.20;;
60859;SDS011;46694;54.382;9.708;2023-04-03T04:56:23;9.25;;;3.83;;
60859;SDS011;46694;54.382;9.708;2023-04-03T04:59:03;6.78;;;3.85;;
60859;SDS011;46694;54.382;9.708;2023-04-03T05:01:43;6.07;;;4.10;;
60859;SDS011;46694;54.382;9.708;2023-04-03T05:04:23;7.10;;;3.85;;
60859;SDS011;46694;54.382;9.708;2023-04-03T05:07:02;12.40;;;4.10;;
60859;SDS011;46694;54.382;9.708;2023-04-03T05:09:42;9.27;;;4.43;;
60859;SDS011;46694;54.382;9.708;2023-04-03T05:12:21;8.02;;;4.82;;
60859;SDS011;46694;54.382;9.708;2023-04-03T05:15:01;7.57;;;4.60;;
60859;SDS011;46694;54.382;9.708;2023-04-03T05:17:40;6.55;;;4.85;;
60859;SDS011;46694;54.382;9.708;2023-04-03T05:20:20;10.57;;;5.90;;
60859;SDS011;46694;54.382;9.708;2023-04-03T05:22:59;10.90;;;5.18;;
60859;SDS011;46694;54.382;9.708;2023-04-03T05:25:39;13.27;;;5.00;;
60859;SDS011;46694;54.382;9.708;2023-04-03T05:28:18;6.47;;;5.15;;
60859;SDS011;46694;54.382;9.708;2023-04-03T05:30:58;8.65;;;4.80;;
60859;SDS011;46694;54.382;9.708;2023-04-03T05:33:38;16.42;;;5.35;;
60859;SDS011;46694;54.382;9.708;2023-04-03T05:36:17;5.93;;;4.90;;
60859;SDS011;46694;54.382;9.708;2023-04-03T05:38:57;9.77;;;5.15;;
60859;SDS011;46694;54.382;9.708;2023-04-03T05:41:37;12.53;;;4.57;;
60859;SDS011;46694;54.382;9.708;2023-04-03T05:44:16;6.80;;;4.50;;
60859;SDS011;46694;54.382;9.708;2023-04-03T05:46:56;10.48;;;4.82;;
60859;SDS011;46694;54.382;9.708;2023-04-03T05:49:35;6.27;;;3.93;;
60859;SDS011;46694;54.382;9.708;2023-04-03T05:52:26;7.50;;;4.68;;
60859;SDS011;46694;54.382;9.708;2023-04-03T05:55:09;9.88;;;4.90;;
60859;SDS011;46694;54.382;9.708;2023-04-03T05:57:48;7.47;;;4.97;;
60859;SDS011;46694;54.382;9.708;2023-04-03T06:00:29;7.10;;;4.20;;
60859;SDS011;46694;54.382;9.708;2023-04-03T06:03:08;8.65;;;4.80;;
60859;SDS011;46694;54.382;9.708;2023-04-03T06:05:50;10.23;;;4.33;;
60859;SDS011;46694;54.382;9.708;2023-04-03T06:08:30;9.52;;;4.85;;
60859;SDS011;46694;54.382;9.708;2023-04-03T06:11:09;11.65;;;5.30;;
60859;SDS011;46694;54.382;9.708;2023-04-03T06:13:52;8.50;;;4.60;;
60859;SDS011;46694;54.382;9.708;2023-04-03T06:16:32;6.63;;;4.40;;
60859;SDS011;46694;54.382;9.708;2023-04-03T06:19:12;10.63;;;4.00;;
60859;SDS011;46694;54.382;9.708;2023-04-03T06:21:52;8.52;;;4.10;;
60859;SDS011;46694;54.382;9.708;2023-04-03T06:24:31;12.27;;;4.97;;
60859;SDS011;46694;54.382;9.708;2023-04-03T06:27:11;7.80;;;3.70;;
60859;SDS011;46694;54.382;9.708;2023-04-03T06:29:51;10.38;;;3.97;;
60859;SDS011;46694;54.382;9.708;2023-04-03T06:32:30;10.38;;;3.60;;
60859;SDS011;46694;54.382;9.708;2023-04-03T06:35:10;8.63;;;3.20;;
60859;SDS011;46694;54.382;9.708;2023-04-03T06:37:50;11.00;;;3.50;;
60859;SDS011;46694;54.382;9.708;2023-04-03T06:40:30;13.23;;;3.55;;
60859;SDS011;46694;54.382;9.708;2023-04-03T06:43:10;7.78;;;3.90;;
60859;SDS011;46694;54.382;9.708;2023-04-03T06:45:49;13.38;;;3.55;;
60859;SDS011;46694;54.382;9.708;2023-04-03T06:48:29;8.35;;;3.15;;
60859;SDS011;46694;54.382;9.708;2023-04-03T06:53:59;13.20;;;4.05;;
60859;SDS011;46694;54.382;9.708;2023-04-03T06:56:39;11.38;;;3.80;;
60859;SDS011;46694;54.382;9.708;2023-04-03T06:59:19;15.03;;;2.97;;
60859;SDS011;46694;54.382;9.708;2023-04-03T07:01:58;11.73;;;3.73;;
60859;SDS011;46694;54.382;9.708;2023-04-03T07:04:38;12.93;;;3.00;;
60859;SDS011;46694;54.382;9.708;2023-04-03T07:07:18;9.87;;;3.67;;
60859;SDS011;46694;54.382;9.708;2023-04-03T07:09:57;7.97;;;3.00;;
60859;SDS011;46694;54.382;9.708;2023-04-03T07:12:37;8.27;;;3.10;;
60859;SDS011;46694;54.382;9.708;2023-04-03T07:15:16;6.73;;;2.53;;
60859;SDS011;46694;54.382;9.708;2023-04-03T07:17:56;12.50;;;2.97;;
60859;SDS011;46694;54.382;9.708;2023-04-03T07:20:36;14.30;;;6.80;;
60859;SDS011;46694;54.382;9.708;2023-04-03T07:23:15;10.83;;;5.17;;
60859;SDS011;46694;54.382;9.708;2023-04-03T07:25:55;11.93;;;4.30;;
60859;SDS011;46694;54.382;9.708;2023-04-03T07:28:35;10.47;;;3.90;;
60859;SDS011;46694;54.382;9.708;2023-04-03T07:31:15;11.30;;;4.10;;
60859;SDS011;46694;54.382;9.708;2023-04-03T07:33:56;15.50;;;5.00;;
60859;SDS011;46694;54.382;9.708;2023-04-03T07:36:36;11.50;;;4.33;;
60859;SDS011;46694;54.382;9.708;2023-04-03T07:39:16;10.87;;;3.63;;
60859;SDS011;46694;54.382;9.708;2023-04-03T07:41:55;12.10;;;4.37;;
60859;SDS011;46694;54.382;9.708;2023-04-03T07:44:35;8.60;;;3.87;;
60859;SDS011;46694;54.382;9.708;2023-04-03T07:47:15;9.83;;;3.60;;
60859;SDS011;46694;54.382;9.708;2023-04-03T07:49:57;9.60;;;3.70;;
60859;SDS011;46694;54.382;9.708;2023-04-03T07:52:36;9.33;;;4.23;;
60859;SDS011;46694;54.382;9.708;2023-04-03T07:55:16;7.53;;;3.23;;
60859;SDS011;46694;54.382;9.708;2023-04-03T07:57:55;5.10;;;2.83;;
60859;SDS011;46694;54.382;9.708;2023-04-03T08:00:35;9.40;;;3.13;;
60859;SDS011;46694;54.382;9.708;2023-04-03T08:03:14;5.60;;;2.47;;
60859;SDS011;46694;54.382;9.708;2023-04-03T08:06:01;15.83;;;2.63;;
60859;SDS011;46694;54.382;9.708;2023-04-03T08:08:45;6.43;;;2.33;;
60859;SDS011;46694;54.382;9.708;2023-04-03T08:11:25;4.97;;;1.70;;
60859;SDS011;46694;54.382;9.708;2023-04-03T08:14:05;5.93;;;2.43;;
60859;SDS011;46694;54.382;9.708;2023-04-03T08:16:46;4.57;;;2.23;;
60859;SDS011;46694;54.382;9.708;2023-04-03T08:19:26;3.13;;;2.10;;
60859;SDS011;46694;54.382;9.708;2023-04-03T08:22:06;4.83;;;2.67;;
60859;SDS011;46694;54.382;9.708;2023-04-03T08:24:45;6.10;;;2.03;;
60859;SDS011;46694;54.382;9.708;2023-04-03T08:27:25;2.13;;;2.00;;
60859;SDS011;46694;54.382;9.708;2023-04-03T08:30:05;6.10;;;1.83;;
60859;SDS011;46694;54.382;9.708;2023-04-03T08:32:46;6.40;;;2.33;;
60859;SDS011;46694;54.382;9.708;2023-04-03T08:35:25;4.00;;;1.70;;
60859;SDS011;46694;54.382;9.708;2023-04-03T08:38:05;3.07;;;1.50;;
60859;SDS011;46694;54.382;9.708;2023-04-03T08:40:45;4.43;;;2.73;;
60859;SDS011;46694;54.382;9.708;2023-04-03T08:43:36;6.57;;;2.10;;
60859;SDS011;46694;54.382;9.708;2023-04-03T08:50:14;5.00;;;2.13;;
60859;SDS011;46694;54.382;9.708;2023-04-03T08:52:58;3.27;;;1.30;;
60859;SDS011;46694;54.382;9.708;2023-04-03T08:55:43;5.27;;;2.00;;
60859;SDS011;46694;54.382;9.708;2023-04-03T08:58:26;3.63;;;1.73;;
60859;SDS011;46694;54.382;9.708;2023-04-03T09:04:18;9.50;;;2.40;;
60859;SDS011;46694;54.382;9.708;2023-04-03T09:06:58;2.00;;;1.67;;
60859;SDS011;46694;54.382;9.708;2023-04-03T09:09:48;4.40;;;1.80;;
60859;SDS011;46694;54.382;9.708;2023-04-03T09:12:49;2.83;;;1.87;;
60859;SDS011;46694;54.382;9.708;2023-04-03T09:15:57;2.33;;;1.80;;
60859;SDS011;46694;54.382;9.708;2023-04-03T09:18:39;3.83;;;1.93;;
60859;SDS011;46694;54.382;9.708;2023-04-03T09:21:31;3.60;;;1.47;;
60859;SDS011;46694;54.382;9.708;2023-04-03T09:24:17;4.30;;;0.93;;
60859;SDS011;46694;54.382;9.708;2023-04-03T09:27:00;6.20;;;1.80;;
60859;SDS011;46694;54.382;9.708;2023-04-03T09:29:46;4.17;;;1.10;;
60859;SDS011;46694;54.382;9.708;2023-04-03T09:35:15;3.03;;;1.00;;
60859;SDS011;46694;54.382;9.708;2023-04-03T09:40:50;3.90;;;1.50;;
60859;SDS011;46694;54.382;9.708;2023-04-03T09:43:53;3.97;;;1.27;;
60859;SDS011;46694;54.382;9.708;2023-04-03T09:46:33;5.60;;;2.00;;
60859;SDS011;46694;54.382;9.708;2023-04-03T09:49:13;2.23;;;1.23;;
60859;SDS011;46694;54.382;9.708;2023-04-03T09:51:53;4.93;;;1.50;;
60859;SDS011;46694;54.382;9.708;2023-04-03T09:54:34;5.67;;;1.50;;
60859;SDS011;46694;54.382;9.708;2023-04-03T09:57:18;4.90;;;1.50;;
60859;SDS011;46694;54.382;9.708;2023-04-03T09:59:58;2.73;;;1.33;;
60859;SDS011;46694;54.382;9.708;2023-04-03T10:02:39;5.20;;;2.00;;
60859;SDS011;46694;54.382;9.708;2023-04-03T10:05:40;7.37;;;1.60;;
60859;SDS011;46694;54.382;9.708;2023-04-03T10:08:22;3.60;;;1.50;;
60859;SDS011;46694;54.382;9.708;2023-04-03T10:11:11;2.30;;;1.70;;
60859;SDS011;46694;54.382;9.708;2023-04-03T10:13:56;3.87;;;1.60;;
60859;SDS011;46694;54.382;9.708;2023-04-03T10:16:41;8.37;;;2.00;;
60859;SDS011;46694;54.382;9.708;2023-04-03T10:19:34;2.73;;;1.40;;
60859;SDS011;46694;54.382;9.708;2023-04-03T10:34:33;6.20;;;1.87;;
60859;SDS011;46694;54.382;9.708;2023-04-03T10:37:35;4.80;;;2.40;;
60859;SDS011;46694;54.382;9.708;2023-04-03T10:40:33;5.60;;;2.07;;
60859;SDS011;46694;54.382;9.708;2023-04-03T10:43:42;4.23;;;2.33;;
60859;SDS011;46694;54.382;9.708;2023-04-03T10:46:38;3.67;;;1.83;;
60859;SDS011;46694;54.382;9.708;2023-04-03T10:57:53;3.20;;;1.10;;
60859;SDS011;46694;54.382;9.708;2023-04-03T11:00:43;6.07;;;2.20;;
60859;SDS011;46694;54.382;9.708;2023-04-03T11:03:32;4.87;;;1.47;;
60859;SDS011;46694;54.382;9.708;2023-04-03T11:06:52;5.73;;;1.60;;
60859;SDS011;46694;54.382;9.708;2023-04-03T11:10:09;2.70;;;1.40;;
60859;SDS011;46694;54.382;9.708;2023-04-03T11:13:19;4.33;;;1.30;;
60859;SDS011;46694;54.382;9.708;2023-04-03T11:16:05;4.23;;;1.60;;
60859;SDS011;46694;54.382;9.708;2023-04-03T11:18:48;4.60;;;1.67;;
60859;SDS011;46694;54.382;9.708;2023-04-03T11:21:57;5.07;;;1.50;;
60859;SDS011;46694;54.382;9.708;2023-04-03T11:24:51;3.90;;;1.60;;
60859;SDS011;46694;54.382;9.708;2023-04-03T11:39:16;4.50;;;1.30;;
60859;SDS011;46694;54.382;9.708;2023-04-03T11:42:24;6.57;;;1.73;;
60859;SDS011;46694;54.382;9.708;2023-04-03T11:47:56;3.30;;;1.10;;
60859;SDS011;46694;54.382;9.708;2023-04-03T11:53:33;3.57;;;1.27;;
60859;SDS011;46694;54.382;9.708;2023-04-03T12:01:56;5.03;;;0.90;;
60859;SDS011;46694;54.382;9.708;2023-04-03T12:04:39;1.87;;;1.30;;
60859;SDS011;46694;54.382;9.708;2023-04-03T12:08:15;5.50;;;1.53;;
60859;SDS011;46694;54.382;9.708;2023-04-03T12:11:28;5.23;;;1.53;;
60859;SDS011;46694;54.382;9.708;2023-04-03T12:14:14;3.13;;;0.97;;
60859;SDS011;46694;54.382;9.708;2023-04-03T12:16:55;6.77;;;1.47;;
60859;SDS011;46694;54.382;9.708;2023-04-03T12:19:36;2.90;;;1.10;;
60859;SDS011;46694;54.382;9.708;2023-04-03T12:22:22;2.97;;;0.83;;
60859;SDS011;46694;54.382;9.708;2023-04-03T12:25:01;1.83;;;0.93;;
60859;SDS011;46694;54.382;9.708;2023-04-03T12:28:28;6.90;;;0.97;;
60859;SDS011;46694;54.382;9.708;2023-04-03T12:31:09;3.17;;;1.00;;
60859;SDS011;46694;54.382;9.708;2023-04-03T12:36:50;4.00;;;0.80;;
60859;SDS011;46694;54.382;9.708;2023-04-03T12:39:48;4.10;;;0.77;;
60859;SDS011;46694;54.382;9.708;2023-04-03T12:46:14;2.20;;;1.03;;
60859;SDS011;46694;54.382;9.708;2023-04-03T12:48:58;2.57;;;0.90;;
60859;SDS011;46694;54.382;9.708;2023-04-03T12:51:42;2.73;;;0.90;;
60859;SDS011;46694;54.382;9.708;2023-04-03T12:57:18;4.50;;;1.10;;
60859;SDS011;46694;54.382;9.708;2023-04-03T13:00:18;2.40;;;0.87;;
60859;SDS011;46694;54.382;9.708;2023-04-03T13:03:24;4.43;;;1.10;;
60859;SDS011;46694;54.382;9.708;2023-04-03T13:06:10;5.13;;;1.17;;
60859;SDS011;46694;54.382;9.708;2023-04-03T13:08:59;3.27;;;0.80;;
60859;SDS011;46694;54.382;9.708;2023-04-03T13:11:40;4.50;;;1.20;;
60859;SDS011;46694;54.382;9.708;2023-04-03T13:14:22;3.33;;;1.20;;
60859;SDS011;46694;54.382;9.708;2023-04-03T13:17:12;2.50;;;1.17;;
60859;SDS011;46694;54.382;9.708;2023-04-03T13:19:54;1.57;;;0.90;;
60859;SDS011;46694;54.382;9.708;2023-04-03T13:22:35;5.20;;;1.37;;
60859;SDS011;46694;54.382;9.708;2023-04-03T13:25:22;4.77;;;0.97;;
60859;SDS011;46694;54.382;9.708;2023-04-03T13:28:05;3.80;;;1.40;;
60859;SDS011;46694;54.382;9.708;2023-04-03T13:30:56;3.27;;;0.73;;
60859;SDS011;46694;54.382;9.708;2023-04-03T13:34:04;4.37;;;1.17;;
60859;SDS011;46694;54.382;9.708;2023-04-03T13:39:33;4.23;;;1.30;;
60859;SDS011;46694;54.382;9.708;2023-04-03T13:42:20;3.17;;;0.80;;
60859;SDS011;46694;54.382;9.708;2023-04-03T13:45:16;1.80;;;1.07;;
60859;SDS011;46694;54.382;9.708;2023-04-03T13:48:10;4.37;;;0.97;;
60859;SDS011;46694;54.382;9.708;2023-04-03T13:51:02;8.40;;;1.50;;
60859;SDS011;46694;54.382;9.708;2023-04-03T13:53:53;4.40;;;1.20;;
60859;SDS011;46694;54.382;9.708;2023-04-03T13:56:36;2.90;;;1.10;;
60859;SDS011;46694;54.382;9.708;2023-04-03T14:07:37;2.07;;;1.53;;
60859;SDS011;46694;54.382;9.708;2023-04-03T14:10:16;4.43;;;1.00;;
60859;SDS011;46694;54.382;9.708;2023-04-03T14:12:56;1.20;;;0.60;;
60859;SDS011;46694;54.382;9.708;2023-04-03T14:15:36;2.93;;;0.97;;
60859;SDS011;46694;54.382;9.708;2023-04-03T14:18:17;3.13;;;0.93;;
60859;SDS011;46694;54.382;9.708;2023-04-03T14:20:59;2.90;;;0.80;;
60859;SDS011;46694;54.382;9.708;2023-04-03T14:23:39;3.20;;;1.00;;
60859;SDS011;46694;54.382;9.708;2023-04-03T14:26:20;3.17;;;0.70;;
60859;SDS011;46694;54.382;9.708;2023-04-03T14:29:02;5.13;;;1.20;;
60859;SDS011;46694;54.382;9.708;2023-04-03T14:31:43;3.97;;;0.97;;
60859;SDS011;46694;54.382;9.708;2023-04-03T14:34:23;4.77;;;1.10;;
60859;SDS011;46694;54.382;9.708;2023-04-03T14:37:04;9.23;;;1.30;;
60859;SDS011;46694;54.382;9.708;2023-04-03T14:39:48;4.07;;;2.30;;
60859;SDS011;46694;54.382;9.708;2023-04-03T14:42:31;3.10;;;1.13;;
60859;SDS011;46694;54.382;9.708;2023-04-03T14:45:15;2.43;;;1.00;;
60859;SDS011;46694;54.382;9.708;2023-04-03T14:47:56;2.60;;;1.20;;
60859;SDS011;46694;54.382;9.708;2023-04-03T14:50:37;3.10;;;1.27;;
60859;SDS011;46694;54.382;9.708;2023-04-03T14:53:17;1.53;;;0.63;;
60859;SDS011;46694;54.382;9.708;2023-04-03T14:56:00;11.53;;;1.43;;
60859;SDS011;46694;54.382;9.708;2023-04-03T14:58:40;1.10;;;0.80;;
60859;SDS011;46694;54.382;9.708;2023-04-03T15:01:19;2.63;;;1.10;;
60859;SDS011;46694;54.382;9.708;2023-04-03T15:03:59;3.63;;;1.17;;
60859;SDS011;46694;54.382;9.708;2023-04-03T15:06:39;3.23;;;0.80;;
60859;SDS011;46694;54.382;9.708;2023-04-03T15:09:20;1.23;;;0.80;;
60859;SDS011;46694;54.382;9.708;2023-04-03T15:12:03;2.33;;;0.93;;
60859;SDS011;46694;54.382;9.708;2023-04-03T15:14:42;1.77;;;0.75;;
60859;SDS011;46694;54.382;9.708;2023-04-03T15:17:22;2.70;;;1.10;;
60859;SDS011;46694;54.382;9.708;2023-04-03T15:20:03;2.80;;;0.95;;
60859;SDS011;46694;54.382;9.708;2023-04-03T15:22:52;5.15;;;1.00;;
60859;SDS011;46694;54.382;9.708;2023-04-03T15:25:32;5.10;;;1.40;;
60859;SDS011;46694;54.382;9.708;2023-04-03T15:28:17;3.45;;;1.05;;
60859;SDS011;46694;54.382;9.708;2023-04-03T15:31:15;3.60;;;0.80;;
60859;SDS011;46694;54.382;9.708;2023-04-03T15:33:55;1.38;;;0.90;;
60859;SDS011;46694;54.382;9.708;2023-04-03T15:36:35;2.90;;;1.27;;
60859;SDS011;46694;54.382;9.708;2023-04-03T15:39:14;1.50;;;1.00;;
60859;SDS011;46694;54.382;9.708;2023-04-03T15:41:55;4.45;;;1.30;;
60859;SDS011;46694;54.382;9.708;2023-04-03T15:44:38;3.15;;;1.02;;
60859;SDS011;46694;54.382;9.708;2023-04-03T15:47:18;0.80;;;0.80;;
60859;SDS011;46694;54.382;9.708;2023-04-03T15:49:57;3.00;;;1.67;;
60859;SDS011;46694;54.382;9.708;2023-04-03T15:52:37;3.20;;;1.35;;
60859;SDS011;46694;54.382;9.708;2023-04-03T15:55:17;5.68;;;1.58;;
60859;SDS011;46694;54.382;9.708;2023-04-03T15:57:56;2.20;;;0.93;;
60859;SDS011;46694;54.382;9.708;2023-04-03T16:00:36;2.17;;;1.15;;
60859;SDS011;46694;54.382;9.708;2023-04-03T16:03:16;10.13;;;1.88;;
60859;SDS011;46694;54.382;9.708;2023-04-03T16:05:58;6.45;;;1.40;;
60859;SDS011;46694;54.382;9.708;2023-04-03T16:08:39;3.92;;;1.50;;
60859;SDS011;46694;54.382;9.708;2023-04-03T16:11:20;3.72;;;1.10;;
60859;SDS011;46694;54.382;9.708;2023-04-03T16:13:59;2.78;;;1.23;;
60859;SDS011;46694;54.382;9.708;2023-04-03T16:16:39;4.57;;;1.60;;
60859;SDS011;46694;54.382;9.708;2023-04-03T16:19:19;2.45;;;1.40;;
60859;SDS011;46694;54.382;9.708;2023-04-03T16:21:59;2.35;;;1.20;;
60859;SDS011;46694;54.382;9.708;2023-04-03T16:24:38;12.02;;;1.50;;
60859;SDS011;46694;54.382;9.708;2023-04-03T16:27:18;1.70;;;0.90;;
60859;SDS011;46694;54.382;9.708;2023-04-03T16:29:59;2.15;;;0.98;;
60859;SDS011;46694;54.382;9.708;2023-04-03T16:32:38;8.32;;;1.40;;
60859;SDS011;46694;54.382;9.708;2023-04-03T16:35:18;4.40;;;1.13;;
60859;SDS011;46694;54.382;9.708;2023-04-03T16:37:58;4.70;;;1.50;;
60859;SDS011;46694;54.382;9.708;2023-04-03T16:40:38;3.28;;;1.40;;
60859;SDS011;46694;54.382;9.708;2023-04-03T16:43:17;2.55;;;1.08;;
60859;SDS011;46694;54.382;9.708;2023-04-03T16:45:57;3.60;;;1.42;;
60859;SDS011;46694;54.382;9.708;2023-04-03T16:48:37;3.40;;;1.73;;
60859;SDS011;46694;54.382;9.708;2023-04-03T16:51:17;4.72;;;1.08;;
60859;SDS011;46694;54.382;9.708;2023-04-03T16:53:57;4.85;;;2.03;;
60859;SDS011;46694;54.382;9.708;2023-04-03T16:56:36;5.63;;;1.55;;
60859;SDS011;46694;54.382;9.708;2023-04-03T16:59:16;4.97;;;2.88;;
60859;SDS011;46694;54.382;9.708;2023-04-03T17:01:56;3.88;;;1.52;;
60859;SDS011;46694;54.382;9.708;2023-04-03T17:04:35;3.42;;;1.65;;
60859;SDS011;46694;54.382;9.708;2023-04-03T17:07:15;2.03;;;1.80;;
60859;SDS011;46694;54.382;9.708;2023-04-03T17:09:54;4.13;;;2.00;;
60859;SDS011;46694;54.382;9.708;2023-04-03T17:12:34;4.00;;;1.70;;
60859;SDS011;46694;54.382;9.708;2023-04-03T17:15:14;10.75;;;1.75;;
60859;SDS011;46694;54.382;9.708;2023-04-03T17:17:53;6.70;;;1.70;;
60859;SDS011;46694;54.382;9.708;2023-04-03T17:20:33;7.95;;;1.50;;
60859;SDS011;46694;54.382;9.708;2023-04-03T17:23:14;6.57;;;1.77;;
60859;SDS011;46694;54.382;9.708;2023-04-03T17:25:54;3.60;;;1.42;;
60859;SDS011;46694;54.382;9.708;2023-04-03T17:28:34;7.43;;;1.88;;
60859;SDS011;46694;54.382;9.708;2023-04-03T17:31:14;6.95;;;2.10;;
60859;SDS011;46694;54.382;9.708;2023-04-03T17:33:54;6.70;;;1.45;;
60859;SDS011;46694;54.382;9.708;2023-04-03T17:36:34;8.35;;;2.28;;
60859;SDS011;46694;54.382;9.708;2023-04-03T17:39:14;5.07;;;2.15;;
60859;SDS011;46694;54.382;9.708;2023-04-03T17:41:53;10.48;;;2.22;;